createdAt,value
2022-08-05T00:00:19.615Z,2.77
2022-08-05T00:02:51.662Z,2.90
2022-08-05T00:06:03.006Z,3.20
2022-08-05T00:08:32.710Z,3.03
2022-08-05T00:10:56.292Z,2.83
2022-08-05T00:13:38.101Z,2.80
2022-08-05T00:16:12.590Z,2.97
2022-08-05T00:18:42.344Z,4.18
2022-08-05T00:21:09.399Z,3.03
2022-08-05T00:23:46.142Z,2.75
2022-08-05T00:26:20.642Z,2.57
2022-08-05T00:28:47.136Z,2.50
2022-08-05T00:31:15.889Z,3.35
2022-08-05T00:34:55.494Z,3.80
2022-08-05T00:37:11.542Z,3.20
2022-08-05T00:39:15.559Z,3.17
2022-08-05T00:41:55.252Z,3.20
2022-08-05T00:44:30.720Z,3.15
2022-08-05T00:47:03.771Z,2.97
2022-08-05T00:49:44.746Z,2.92
2022-08-05T00:52:18.394Z,3.23
2022-08-05T00:54:55.011Z,3.05
2022-08-05T00:57:25.157Z,2.58
2022-08-05T00:59:58.166Z,3.15
2022-08-05T01:02:24.762Z,2.92
2022-08-05T01:04:51.305Z,2.60
2022-08-05T01:07:18.103Z,2.63
2022-08-05T01:09:44.943Z,3.10
2022-08-05T01:12:18.749Z,2.40
2022-08-05T01:14:55.795Z,2.75
2022-08-05T01:17:31.253Z,2.67
2022-08-05T01:20:13.721Z,2.40
2022-08-05T01:22:51.382Z,2.55
2022-08-05T01:25:53.242Z,2.53
2022-08-05T01:28:27.992Z,2.50
2022-08-05T01:31:34.299Z,3.00
2022-08-05T01:34:26.724Z,2.70
2022-08-05T01:37:00.707Z,2.72
2022-08-05T01:39:34.605Z,2.40
2022-08-05T01:42:16.419Z,2.90
2022-08-05T01:44:45.794Z,2.60
2022-08-05T01:47:22.119Z,2.42
2022-08-05T01:50:01.390Z,2.75
2022-08-05T01:52:32.584Z,2.50
2022-08-05T01:55:06.760Z,2.70
2022-08-05T01:58:29.496Z,2.97
2022-08-05T02:00:30.730Z,3.65
2022-08-05T02:03:06.623Z,2.40
2022-08-05T02:05:44.838Z,2.47
2022-08-05T02:08:15.025Z,2.63
2022-08-05T02:11:02.555Z,3.30
2022-08-05T02:13:53.254Z,2.80
2022-08-05T02:16:29.081Z,3.05
2022-08-05T02:19:14.072Z,2.90
2022-08-05T02:21:46.787Z,2.38
2022-08-05T02:24:23.405Z,2.87
2022-08-05T02:26:54.904Z,2.80
2022-08-05T02:29:26.158Z,2.47
2022-08-05T02:32:12.994Z,2.58
2022-08-05T02:34:54.711Z,2.35
2022-08-05T02:37:23.213Z,2.70
2022-08-05T02:39:51.516Z,2.78
2022-08-05T02:42:25.729Z,3.17
2022-08-05T02:44:53.206Z,2.50
2022-08-05T02:47:21.638Z,3.22
2022-08-05T02:49:49.050Z,2.40
2022-08-05T02:52:30.167Z,2.92
2022-08-05T02:54:58.702Z,2.83
2022-08-05T02:58:11.605Z,3.13
2022-08-05T03:00:17.265Z,2.50
2022-08-05T03:02:47.651Z,3.10
2022-08-05T03:05:15.562Z,3.17
2022-08-05T03:08:01.263Z,3.35
2022-08-05T03:10:29.885Z,3.83
2022-08-05T03:15:23.422Z,2.70
2022-08-05T03:17:54.015Z,2.78
2022-08-05T03:20:22.236Z,2.40
2022-08-05T03:22:50.610Z,2.58
2022-08-05T03:25:33.788Z,2.85
2022-08-05T03:28:10.623Z,3.00
2022-08-05T03:30:41.054Z,3.20
2022-08-05T03:33:09.221Z,3.42
2022-08-05T03:35:40.454Z,2.92
2022-08-05T03:38:08.003Z,3.97
2022-08-05T03:40:34.527Z,2.90
2022-08-05T03:43:59.017Z,3.08
2022-08-05T03:45:57.931Z,3.53
2022-08-05T03:48:29.926Z,2.95
2022-08-05T03:52:37.773Z,2.95
2022-08-05T03:55:53.611Z,2.57
2022-08-05T03:57:16.751Z,2.88
2022-08-05T04:00:03.365Z,3.97
2022-08-05T04:02:38.813Z,3.00
2022-08-05T04:05:13.066Z,2.70
2022-08-05T04:07:51.438Z,2.93
2022-08-05T04:10:30.951Z,2.70
2022-08-05T04:13:03.386Z,3.00
2022-08-05T04:15:33.313Z,3.00
2022-08-05T04:18:09.847Z,2.92
2022-08-05T04:20:38.600Z,2.77
2022-08-05T04:23:12.594Z,3.38
2022-08-05T04:25:57.140Z,3.28
2022-08-05T04:28:30.556Z,2.97
2022-08-05T04:31:01.064Z,3.15
2022-08-05T04:34:17.991Z,2.87
2022-08-05T04:36:44.786Z,2.92
2022-08-05T04:39:01.997Z,2.88
2022-08-05T04:41:36.641Z,2.88
2022-08-05T04:44:09.375Z,3.28
2022-08-05T04:46:37.610Z,3.10
2022-08-05T04:49:05.613Z,3.55
2022-08-05T04:51:38.928Z,3.05
2022-08-05T04:54:05.619Z,3.28
2022-08-05T04:56:37.250Z,2.97
2022-08-05T04:59:21.944Z,3.20
2022-08-05T05:02:07.399Z,4.18
2022-08-05T05:04:44.136Z,2.97
2022-08-05T05:07:15.946Z,3.25
2022-08-05T05:09:44.080Z,2.90
2022-08-05T05:12:11.590Z,3.20
2022-08-05T05:14:49.396Z,3.25
2022-08-05T05:17:23.441Z,3.28
2022-08-05T05:19:53.939Z,2.72
2022-08-05T05:22:22.840Z,3.47
2022-08-05T05:24:58.399Z,2.73
2022-08-05T05:27:44.656Z,3.40
2022-08-05T05:30:29.136Z,3.13
2022-08-05T05:32:57.018Z,3.13
2022-08-05T05:35:27.782Z,3.22
2022-08-05T05:37:59.744Z,3.50
2022-08-05T05:40:29.557Z,3.13
2022-08-05T05:42:57.451Z,3.95
2022-08-05T05:45:24.694Z,3.58
2022-08-05T05:48:06.761Z,3.80
2022-08-05T05:50:41.041Z,3.40
2022-08-05T05:53:22.223Z,3.03
2022-08-05T05:55:52.387Z,3.60
2022-08-05T05:58:30.374Z,3.80
2022-08-05T06:01:12.682Z,3.97
2022-08-05T06:04:00.416Z,3.20
2022-08-05T06:06:31.301Z,3.00
2022-08-05T06:09:00.411Z,3.15
2022-08-05T06:11:28.947Z,3.10
2022-08-05T06:13:56.112Z,3.47
2022-08-05T06:16:31.806Z,2.67
2022-08-05T06:19:05.848Z,2.60
2022-08-05T06:21:36.769Z,3.88
2022-08-05T06:24:04.529Z,2.80
2022-08-05T06:26:33.964Z,2.47
2022-08-05T06:29:06.057Z,2.20
2022-08-05T06:31:48.826Z,2.33
2022-08-05T06:34:17.449Z,2.22
2022-08-05T06:36:56.802Z,2.45
2022-08-05T06:39:24.538Z,1.77
2022-08-05T06:41:53.530Z,2.20
2022-08-05T06:44:22.003Z,2.00
2022-08-05T06:46:50.942Z,2.00
2022-08-05T06:49:18.903Z,2.17
2022-08-05T06:51:48.358Z,1.80
2022-08-05T06:54:19.025Z,1.90
2022-08-05T06:56:55.171Z,1.60
2022-08-05T06:59:38.540Z,1.77
2022-08-05T07:02:05.675Z,1.85
2022-08-05T07:04:32.137Z,2.10
2022-08-05T07:06:59.727Z,2.47
2022-08-05T07:09:26.246Z,1.63
2022-08-05T07:12:00.518Z,1.88
2022-08-05T07:14:46.118Z,1.58
2022-08-05T07:17:59.948Z,1.50
2022-08-05T07:22:47.739Z,1.40
2022-08-05T07:25:54.287Z,1.67
2022-08-05T07:28:05.792Z,1.35
2022-08-05T07:30:38.884Z,1.70
2022-08-05T07:33:15.647Z,1.67
2022-08-05T07:36:05.059Z,2.65
2022-08-05T07:38:34.237Z,1.60
2022-08-05T07:41:34.981Z,1.33
2022-08-05T07:43:56.073Z,1.90
2022-08-05T07:46:25.055Z,1.40
2022-08-05T07:49:02.006Z,1.30
2022-08-05T07:51:37.174Z,1.38
2022-08-05T07:54:10.171Z,2.85
2022-08-05T07:57:01.988Z,1.30
2022-08-05T07:59:38.871Z,1.37
2022-08-05T08:02:16.996Z,1.48
2022-08-05T08:04:48.771Z,1.15
2022-08-05T08:07:17.900Z,1.38
2022-08-05T08:09:45.800Z,1.20
2022-08-05T08:12:37.053Z,1.17
2022-08-05T08:15:03.720Z,1.20
2022-08-05T08:17:32.429Z,1.05
2022-08-05T08:20:42.833Z,1.10
2022-08-05T08:22:53.538Z,1.00
2022-08-05T08:25:26.822Z,1.23
2022-08-05T08:28:18.438Z,1.02
2022-08-05T08:30:56.072Z,0.70
2022-08-05T08:33:23.839Z,0.80
2022-08-05T08:35:55.986Z,0.77
2022-08-05T08:38:35.969Z,0.60
2022-08-05T08:41:09.978Z,0.80
2022-08-05T08:45:18.935Z,0.73
2022-08-05T08:46:28.024Z,0.70
2022-08-05T08:49:06.415Z,0.70
2022-08-05T08:52:03.412Z,0.50
2022-08-05T08:54:33.178Z,0.73
2022-08-05T08:57:00.586Z,0.70
2022-08-05T08:59:33.583Z,0.60
2022-08-05T09:02:04.387Z,0.70
2022-08-05T09:04:58.188Z,0.60
2022-08-05T09:07:28.410Z,0.68
2022-08-05T09:09:56.310Z,0.75
2022-08-05T09:12:27.407Z,0.95
2022-08-05T09:14:59.638Z,0.80
2022-08-05T09:17:42.238Z,0.80
2022-08-05T09:20:13.461Z,0.70
2022-08-05T09:23:07.755Z,0.70
2022-08-05T09:26:02.193Z,0.80
2022-08-05T09:28:31.842Z,0.70
2022-08-05T09:31:43.534Z,0.80
2022-08-05T09:34:01.232Z,0.57
2022-08-05T09:36:54.655Z,0.52
2022-08-05T09:39:27.644Z,0.68
2022-08-05T09:42:08.591Z,1.15
2022-08-05T09:44:46.012Z,0.60
2022-08-05T09:47:17.996Z,0.60
2022-08-05T09:50:01.566Z,0.70
2022-08-05T09:52:34.629Z,0.60
2022-08-05T09:55:56.370Z,0.60
2022-08-05T09:57:58.741Z,0.60
2022-08-05T10:00:27.817Z,0.70
2022-08-05T10:02:58.371Z,1.30
2022-08-05T10:05:29.342Z,0.60
2022-08-05T10:08:36.481Z,0.90
2022-08-05T10:10:54.162Z,0.63
2022-08-05T10:13:47.313Z,0.50
2022-08-05T10:16:41.561Z,0.52
2022-08-05T10:19:11.855Z,0.80
2022-08-05T10:21:40.303Z,0.60
2022-08-05T10:24:10.875Z,0.67
2022-08-05T10:26:51.406Z,0.65
2022-08-05T10:29:24.045Z,0.50
2022-08-05T10:33:01.059Z,0.50
2022-08-05T10:35:00.787Z,0.80
2022-08-05T10:37:37.544Z,0.70
2022-08-05T10:40:35.533Z,0.70
2022-08-05T10:43:17.590Z,0.70
2022-08-05T10:46:06.257Z,0.73
2022-08-05T10:48:57.055Z,0.50
2022-08-05T10:51:28.748Z,0.73
2022-08-05T10:53:58.347Z,0.57
2022-08-05T10:56:29.820Z,0.77
2022-08-05T10:58:56.242Z,0.60
2022-08-05T11:01:55.081Z,0.65
2022-08-05T11:04:26.372Z,0.70
2022-08-05T11:07:04.545Z,0.88
2022-08-05T11:09:47.850Z,0.60
2022-08-05T11:12:26.511Z,0.50
2022-08-05T11:16:00.552Z,0.63
2022-08-05T11:18:29.981Z,0.60
2022-08-05T11:20:59.858Z,0.60
2022-08-05T11:24:04.559Z,0.50
2022-08-05T11:26:38.014Z,0.70
2022-08-05T11:29:14.040Z,0.70
2022-08-05T11:31:56.417Z,0.57
2022-08-05T11:34:50.900Z,0.60
2022-08-05T11:38:30.351Z,0.70
2022-08-05T11:41:00.617Z,0.60
2022-08-05T11:44:01.013Z,0.80
2022-08-05T11:46:32.561Z,0.60
2022-08-05T11:49:00.924Z,0.60
2022-08-05T11:51:43.616Z,0.60
2022-08-05T11:54:24.440Z,0.73
2022-08-05T11:57:02.181Z,0.60
2022-08-05T11:59:35.969Z,0.83
2022-08-05T12:02:23.744Z,0.70
2022-08-05T12:04:59.204Z,0.60
2022-08-05T12:08:08.931Z,0.50
2022-08-05T12:10:19.873Z,0.55
2022-08-05T12:12:59.941Z,0.43
2022-08-05T12:15:38.407Z,0.90
2022-08-05T12:18:10.986Z,0.50
2022-08-05T12:20:38.815Z,0.65
2022-08-05T12:23:10.488Z,0.50
2022-08-05T12:26:09.175Z,0.57
2022-08-05T12:28:38.199Z,0.60
2022-08-05T12:31:05.567Z,0.70
2022-08-05T12:33:36.360Z,0.50
2022-08-05T12:36:07.864Z,0.65
2022-08-05T12:38:38.264Z,0.50
2022-08-05T12:41:14.041Z,0.60
2022-08-05T12:44:02.875Z,0.90
2022-08-05T12:46:31.233Z,0.50
2022-08-05T12:48:58.056Z,0.50
2022-08-05T12:52:12.755Z,0.40
2022-08-05T12:54:23.568Z,0.60
2022-08-05T12:56:55.982Z,0.60
2022-08-05T12:59:27.598Z,0.82
2022-08-05T13:02:12.739Z,0.65
2022-08-05T13:04:52.459Z,0.80
2022-08-05T13:07:54.772Z,0.50
2022-08-05T13:10:14.593Z,0.52
2022-08-05T13:12:57.749Z,0.50
2022-08-05T13:15:41.709Z,0.57
2022-08-05T13:18:19.460Z,1.07
2022-08-05T13:20:49.145Z,0.57
2022-08-05T13:23:18.062Z,1.75
2022-08-05T13:25:58.599Z,0.60
2022-08-05T13:28:26.756Z,0.50
2022-08-05T13:30:53.609Z,0.50
2022-08-05T13:34:24.676Z,0.50
2022-08-05T13:36:09.142Z,0.40
2022-08-05T13:38:42.080Z,0.40
2022-08-05T13:41:09.440Z,0.50
2022-08-05T13:43:44.989Z,0.40
2022-08-05T13:49:12.587Z,0.40
2022-08-05T13:51:41.813Z,0.55
2022-08-05T13:54:15.436Z,0.60
2022-08-05T13:56:45.536Z,0.57
2022-08-05T13:59:24.235Z,0.60
2022-08-05T14:01:58.016Z,1.13
2022-08-05T14:04:50.154Z,0.60
2022-08-05T14:07:59.705Z,1.70
2022-08-05T14:10:28.012Z,0.77
2022-08-05T14:12:55.920Z,0.60
2022-08-05T14:16:05.605Z,0.70
2022-08-05T14:18:14.621Z,0.60
2022-08-05T14:20:47.306Z,0.90
2022-08-05T14:23:15.336Z,0.60
2022-08-05T14:25:53.806Z,0.57
2022-08-05T14:28:26.292Z,0.50
2022-08-05T14:30:54.202Z,0.57
2022-08-05T14:33:22.619Z,0.50
2022-08-05T14:35:51.510Z,0.50
2022-08-05T14:38:32.760Z,0.65
2022-08-05T14:41:06.931Z,0.50
2022-08-05T14:44:02.712Z,0.60
2022-08-05T14:46:28.031Z,0.60
2022-08-05T14:48:56.666Z,0.50
2022-08-05T14:51:23.930Z,0.80
2022-08-05T14:54:25.860Z,0.60
2022-08-05T14:56:44.064Z,0.50
2022-08-05T14:59:13.122Z,0.45
2022-08-05T15:01:48.573Z,0.60
2022-08-05T15:04:17.128Z,0.70
2022-08-05T15:06:49.031Z,0.70
2022-08-05T15:09:16.558Z,0.50
2022-08-05T15:12:04.046Z,0.57
2022-08-05T15:14:34.546Z,0.77
2022-08-05T15:17:09.919Z,0.73
2022-08-05T15:19:55.965Z,0.70
2022-08-05T15:22:26.648Z,0.70
2022-08-05T15:24:54.895Z,0.90
2022-08-05T15:27:21.345Z,0.87
2022-08-05T15:29:47.817Z,0.68
2022-08-05T15:32:16.449Z,0.60
2022-08-05T15:34:43.172Z,0.80
2022-08-05T15:38:08.722Z,0.93
2022-08-05T15:41:02.442Z,0.90
2022-08-05T15:42:55.072Z,0.60
2022-08-05T15:45:37.871Z,0.98
2022-08-05T15:48:05.508Z,0.70
2022-08-05T15:50:33.418Z,0.90
2022-08-05T15:53:04.089Z,0.60
2022-08-05T15:56:02.397Z,0.90
2022-08-05T15:58:19.200Z,1.10
2022-08-05T16:00:57.156Z,1.67
2022-08-05T16:03:36.250Z,0.95
2022-08-05T16:06:08.612Z,2.43
2022-08-05T16:08:38.604Z,1.40
2022-08-05T16:11:05.340Z,0.90
2022-08-05T16:13:34.671Z,1.00
2022-08-05T16:16:03.410Z,0.90
2022-08-05T16:18:30.625Z,0.90
2022-08-05T16:20:57.370Z,1.10
2022-08-05T16:23:24.213Z,1.40
2022-08-05T16:25:55.816Z,1.20
2022-08-05T16:28:22.461Z,1.10
2022-08-05T16:30:52.074Z,0.97
2022-08-05T16:33:19.414Z,1.00
2022-08-05T16:35:49.872Z,1.08
2022-08-05T16:38:25.709Z,0.85
2022-08-05T16:41:00.194Z,0.95
2022-08-05T16:43:32.524Z,0.90
2022-08-05T16:46:07.795Z,1.00
2022-08-05T16:48:39.536Z,1.02
2022-08-05T16:51:09.186Z,0.98
2022-08-05T16:54:05.178Z,1.00
2022-08-05T16:56:26.586Z,1.03
2022-08-05T16:58:54.002Z,0.95
2022-08-05T17:01:20.619Z,1.30
2022-08-05T17:03:47.418Z,1.40
2022-08-05T17:06:16.605Z,1.13
2022-08-05T17:08:52.942Z,1.40
2022-08-05T17:11:23.833Z,1.10
2022-08-05T17:14:05.199Z,1.40
2022-08-05T17:16:37.674Z,1.10
2022-08-05T17:19:07.083Z,1.50
2022-08-05T17:21:35.976Z,1.23
2022-08-05T17:24:19.458Z,1.45
2022-08-05T17:26:55.768Z,1.30
2022-08-05T17:29:33.647Z,1.10
2022-08-05T17:32:11.892Z,1.30
2022-08-05T17:34:43.475Z,1.13
2022-08-05T17:37:40.574Z,1.20
2022-08-05T17:39:59.753Z,1.50
2022-08-05T17:42:30.107Z,1.38
2022-08-05T17:44:59.478Z,1.95
2022-08-05T17:47:26.984Z,1.40
2022-08-05T17:50:03.826Z,1.67
2022-08-05T17:52:52.592Z,2.15
2022-08-05T17:55:22.262Z,1.58
2022-08-05T17:57:50.109Z,1.40
2022-08-05T18:00:17.451Z,1.30
2022-08-05T18:02:46.951Z,1.52
2022-08-05T18:05:17.042Z,1.45
2022-08-05T18:07:44.664Z,1.30
2022-08-05T18:10:14.030Z,1.25
2022-08-05T18:12:47.574Z,1.40
2022-08-05T18:15:14.121Z,1.70
2022-08-05T18:18:00.559Z,1.40
2022-08-05T18:20:29.238Z,1.48
2022-08-05T18:22:58.653Z,1.65
2022-08-05T18:25:33.039Z,1.53
2022-08-05T18:28:04.754Z,1.73
2022-08-05T18:30:33.099Z,2.50
2022-08-05T18:33:01.241Z,1.85
2022-08-05T18:36:01.126Z,1.90
2022-08-05T18:38:16.505Z,2.60
2022-08-05T18:41:53.796Z,2.15
2022-08-05T18:43:38.282Z,2.00
2022-08-05T18:46:10.041Z,1.95
2022-08-05T18:48:41.632Z,2.40
2022-08-05T18:52:04.745Z,2.70
2022-08-05T18:54:14.426Z,2.17
2022-08-05T18:56:41.830Z,1.80
2022-08-05T18:59:42.694Z,2.10
2022-08-05T19:02:04.894Z,2.63
2022-08-05T19:05:03.235Z,2.33
2022-08-05T19:07:46.402Z,2.58
2022-08-05T19:10:14.703Z,1.92
2022-08-05T19:12:41.416Z,2.65
2022-08-05T19:15:10.659Z,1.95
2022-08-05T19:17:59.371Z,2.10
2022-08-05T19:20:35.641Z,2.20
2022-08-05T19:23:03.209Z,2.65
2022-08-05T19:25:42.032Z,2.80
2022-08-05T19:28:10.266Z,2.70
2022-08-05T19:30:36.835Z,2.57
2022-08-05T19:33:04.705Z,3.10
2022-08-05T19:35:56.094Z,2.38
2022-08-05T19:38:24.082Z,2.35
2022-08-05T19:40:53.447Z,2.22
2022-08-05T19:44:04.111Z,2.43
2022-08-05T19:46:06.536Z,2.13
2022-08-05T19:48:43.983Z,2.20
2022-08-05T19:52:04.588Z,2.28
2022-08-05T19:54:15.508Z,2.30
2022-08-05T19:56:54.327Z,2.00
2022-08-05T19:59:51.649Z,2.70
2022-08-05T20:02:07.367Z,2.60
2022-08-05T20:04:33.870Z,2.60
2022-08-05T20:07:00.445Z,2.15
2022-08-05T20:09:28.532Z,2.30
2022-08-05T20:12:15.160Z,3.72
2022-08-05T20:14:41.862Z,2.80
2022-08-05T20:17:09.921Z,2.40
2022-08-05T20:19:41.357Z,2.20
2022-08-05T20:22:09.693Z,2.93
2022-08-05T20:24:36.451Z,2.33
2022-08-05T20:27:04.734Z,2.10
2022-08-05T20:29:37.998Z,2.72
2022-08-05T20:32:06.545Z,2.80
2022-08-05T20:34:33.107Z,2.80
2022-08-05T20:37:00.802Z,3.38
2022-08-05T20:39:35.777Z,3.38
2022-08-05T20:42:04.771Z,4.35
2022-08-05T20:44:33.071Z,3.35
2022-08-05T20:47:07.642Z,3.40
2022-08-05T20:49:39.554Z,2.90
2022-08-05T20:52:07.390Z,2.42
2022-08-05T20:54:59.866Z,2.85
2022-08-05T20:57:42.610Z,2.92
2022-08-05T21:00:40.310Z,2.87
2022-08-05T21:03:01.199Z,2.60
2022-08-05T21:05:37.969Z,2.75
2022-08-05T21:08:14.943Z,3.08
2022-08-05T21:10:48.731Z,3.13
2022-08-05T21:13:20.263Z,2.97
2022-08-05T21:15:54.735Z,2.05
2022-08-05T21:18:23.365Z,3.42
2022-08-05T21:20:50.142Z,2.72
2022-08-05T21:23:16.619Z,3.40
2022-08-05T21:25:44.575Z,3.00
2022-08-05T21:28:12.080Z,2.70
2022-08-05T21:30:40.121Z,2.85
2022-08-05T21:33:22.100Z,2.92
2022-08-05T21:35:55.984Z,3.28
2022-08-05T21:38:27.697Z,2.63
2022-08-05T21:40:54.366Z,3.20
2022-08-05T21:43:24.059Z,3.40
2022-08-05T21:45:57.952Z,3.30
2022-08-05T21:48:27.886Z,3.15
2022-08-05T21:50:54.994Z,3.30
2022-08-05T21:53:23.251Z,3.45
2022-08-05T21:56:06.069Z,3.15
2022-08-05T21:58:42.473Z,2.92
2022-08-05T22:01:25.010Z,3.38
2022-08-05T22:03:53.624Z,3.70
2022-08-05T22:06:35.263Z,3.40
2022-08-05T22:09:13.847Z,2.95
2022-08-05T22:11:42.169Z,3.20
2022-08-05T22:14:33.461Z,3.20
2022-08-05T22:17:00.212Z,3.43
2022-08-05T22:20:01.963Z,3.35
2022-08-05T22:22:16.547Z,3.35
2022-08-05T22:25:18.034Z,2.92
2022-08-05T22:28:09.658Z,3.70
2022-08-05T22:30:44.114Z,3.30
2022-08-05T22:33:56.996Z,4.03
2022-08-05T22:36:10.084Z,3.70
2022-08-05T22:38:36.630Z,3.97
2022-08-05T22:41:09.554Z,3.63
2022-08-05T22:43:37.995Z,4.03
2022-08-05T22:46:12.201Z,3.60
2022-08-05T22:48:40.736Z,4.18
2022-08-05T22:51:07.939Z,3.95
2022-08-05T22:53:42.308Z,4.57
2022-08-05T22:56:09.885Z,3.90
2022-08-05T22:58:36.619Z,3.70
2022-08-05T23:01:03.143Z,3.70
2022-08-05T23:03:57.809Z,3.60
2022-08-05T23:06:18.890Z,3.45
2022-08-05T23:08:45.610Z,4.10
2022-08-05T23:11:18.618Z,3.70
2022-08-05T23:13:45.337Z,4.13
2022-08-05T23:16:33.226Z,4.05
2022-08-05T23:19:01.022Z,4.40
2022-08-05T23:21:42.528Z,3.80
2022-08-05T23:24:14.394Z,4.47
2022-08-05T23:26:41.766Z,5.18
2022-08-05T23:29:10.741Z,3.58
2022-08-05T23:31:42.413Z,4.90
2022-08-05T23:34:08.989Z,3.63
2022-08-05T23:36:39.826Z,4.28
2022-08-05T23:39:17.461Z,5.03
2022-08-05T23:41:50.674Z,4.15
2022-08-05T23:44:17.329Z,4.95
2022-08-05T23:46:46.447Z,4.73
2022-08-05T23:49:16.036Z,4.47
2022-08-05T23:52:02.702Z,5.30
2022-08-05T23:54:36.425Z,4.53
2022-08-05T23:57:06.605Z,4.43
